Time;durP1;ratioP1;P1;durP2;ratioP2;P2;SDS_P1;SDS_P2;PMS_P1;PMS_P2;Temp;Humidity;BMP_temperature;BMP_pressure;BME280_temperature;BME280_humidity;BME280_pressure;Samples;Min_cycle;Max_cycle;Signal;HPM_P1;HPM_P2
2023/11/10 00:01:54;;;;;;;4.63;3.40;;;24.10;43.30;;;;;;6176176;28;80863;-72
2023/11/10 00:04:55;;;;;;;6.43;4.10;;;24.10;43.30;;;;;;6188954;28;80646;-76
2023/11/10 00:07:55;;;;;;;7.25;3.45;;;24.10;43.30;;;;;;6196639;28;81585;-73
2023/11/10 00:10:57;;;;;;;4.40;2.83;;;24.20;43.30;;;;;;6195265;28;80561;-71
2023/11/10 00:13:57;;;;;;;4.53;3.20;;;24.10;43.30;;;;;;6186126;28;83845;-69
2023/11/10 00:16:58;;;;;;;5.45;3.40;;;24.10;43.40;;;;;;6198772;28;80654;-67
2023/11/10 00:19:58;;;;;;;5.65;3.63;;;24.20;43.40;;;;;;6198846;28;80361;-68
2023/11/10 00:22:59;;;;;;;5.63;3.30;;;24.10;43.30;;;;;;6193443;28;80351;-69
2023/11/10 00:25:59;;;;;;;4.40;3.05;;;24.10;43.40;;;;;;6196509;28;80236;-71
2023/11/10 00:29:00;;;;;;;5.38;3.97;;;24.10;43.40;;;;;;6197659;28;81481;-74
2023/11/10 00:32:01;;;;;;;5.50;3.40;;;24.10;43.50;;;;;;6180766;28;80519;-74
2023/11/10 00:35:02;;;;;;;5.32;3.20;;;24.10;43.40;;;;;;6166557;28;81388;-74
2023/11/10 00:38:03;;;;;;;6.47;3.78;;;24.10;43.40;;;;;;6174606;28;81119;-73
2023/11/10 00:41:04;;;;;;;4.45;3.03;;;24.00;43.40;;;;;;6175695;28;80394;-75
2023/11/10 00:44:05;;;;;;;5.07;3.22;;;24.00;43.40;;;;;;6200305;28;82437;-74
2023/11/10 00:47:06;;;;;;;5.20;3.72;;;24.00;43.40;;;;;;6202510;28;81357;-73
2023/11/10 00:50:06;;;;;;;7.90;4.55;;;24.00;43.40;;;;;;6189893;28;80746;-68
2023/11/10 00:53:07;;;;;;;5.32;3.60;;;24.10;43.40;;;;;;6193591;28;80632;-70
2023/11/10 00:56:07;;;;;;;6.28;3.05;;;24.10;43.20;;;;;;6191666;28;80556;-69
2023/11/10 00:59:08;;;;;;;4.68;3.15;;;24.10;43.40;;;;;;6177252;28;80873;-71
2023/11/10 01:02:08;;;;;;;5.30;3.42;;;24.00;43.70;;;;;;6179724;28;80370;-72
2023/11/10 01:05:11;;;;;;;6.20;3.65;;;24.10;43.70;;;;;;6178460;28;80444;-74
2023/11/10 01:08:11;;;;;;;5.30;3.40;;;24.10;43.60;;;;;;6178486;28;80471;-62
2023/11/10 01:11:12;;;;;;;3.35;2.50;;;24.10;43.70;;;;;;6189351;28;81715;-62
2023/11/10 01:14:12;;;;;;;5.20;3.05;;;24.00;43.90;;;;;;6178820;28;80357;-60
2023/11/10 01:17:13;;;;;;;4.43;3.00;;;24.10;43.80;;;;;;6190055;28;81810;-61
2023/11/10 01:20:14;;;;;;;5.13;3.03;;;24.10;43.50;;;;;;6190979;28;82033;-62
2023/11/10 01:23:14;;;;;;;5.55;2.97;;;24.10;43.40;;;;;;6183587;28;80695;-61
2023/11/10 01:26:15;;;;;;;4.68;3.00;;;24.10;43.30;;;;;;6202150;28;83886;-62
2023/11/10 01:29:16;;;;;;;5.03;3.03;;;24.10;43.20;;;;;;6177678;28;82258;-64
2023/11/10 01:32:17;;;;;;;4.95;2.70;;;24.20;43.40;;;;;;6184404;28;83677;-64
2023/11/10 01:35:18;;;;;;;3.53;2.60;;;24.20;43.30;;;;;;6200736;28;81201;-63
2023/11/10 01:38:18;;;;;;;4.00;2.50;;;24.20;43.30;;;;;;6197244;28;82137;-62
2023/11/10 01:41:20;;;;;;;4.40;2.90;;;24.20;43.20;;;;;;6198983;28;83068;-61
2023/11/10 01:44:21;;;;;;;5.78;2.90;;;24.20;43.30;;;;;;6188786;28;81373;-62
2023/11/10 01:47:22;;;;;;;4.63;2.72;;;24.20;43.10;;;;;;6177124;28;81551;-62
2023/11/10 01:50:24;;;;;;;3.20;2.10;;;24.20;43.60;;;;;;6177671;28;81513;-63
2023/11/10 01:53:24;;;;;;;3.45;2.42;;;24.20;43.60;;;;;;6178401;28;83117;-63
2023/11/10 01:56:25;;;;;;;4.97;2.53;;;24.20;43.30;;;;;;6176219;28;80424;-61
2023/11/10 01:59:25;;;;;;;5.43;2.95;;;24.10;43.40;;;;;;6176280;28;83538;-61
2023/11/10 02:02:26;;;;;;;3.60;2.63;;;24.20;43.30;;;;;;6174385;28;83192;-62
2023/11/10 02:05:26;;;;;;;2.88;2.17;;;24.20;43.20;;;;;;6178417;28;80618;-62
2023/11/10 02:08:27;;;;;;;3.15;2.17;;;24.20;43.40;;;;;;6176839;28;80377;-62
2023/11/10 02:11:27;;;;;;;4.07;1.75;;;24.10;43.50;;;;;;6176892;28;80853;-64
2023/11/10 02:14:28;;;;;;;3.90;2.20;;;24.10;43.70;;;;;;6176178;28;80681;-64
2023/11/10 02:17:28;;;;;;;3.40;2.45;;;24.10;43.70;;;;;;6175039;28;83190;-64
2023/11/10 02:20:29;;;;;;;3.08;2.03;;;24.20;43.50;;;;;;6175495;28;80615;-62
2023/11/10 02:23:29;;;;;;;3.00;2.10;;;24.20;43.20;;;;;;6176072;28;83063;-63
2023/11/10 02:26:30;;;;;;;3.42;2.33;;;24.10;43.10;;;;;;6174450;28;83173;-63
2023/11/10 02:29:30;;;;;;;3.63;2.50;;;24.10;43.10;;;;;;6177569;28;82127;-64
2023/11/10 02:32:31;;;;;;;4.45;2.63;;;24.10;43.10;;;;;;6175891;28;80848;-63
2023/11/10 02:35:32;;;;;;;3.45;2.30;;;24.10;43.00;;;;;;6176521;28;80397;-61
2023/11/10 02:38:32;;;;;;;3.60;2.35;;;24.00;43.00;;;;;;6176957;28;80420;-61
2023/11/10 02:41:33;;;;;;;3.60;2.50;;;24.00;43.00;;;;;;6174963;28;80518;-60
2023/11/10 02:44:33;;;;;;;3.88;2.30;;;24.00;43.00;;;;;;6189027;28;80740;-61
2023/11/10 02:47:34;;;;;;;3.45;2.60;;;24.00;43.00;;;;;;6173687;28;81742;-61
2023/11/10 02:50:34;;;;;;;4.38;2.63;;;24.00;42.90;;;;;;6177398;28;80372;-62
2023/11/10 02:53:35;;;;;;;3.55;2.00;;;24.00;43.00;;;;;;6173948;28;82960;-64
2023/11/10 02:56:35;;;;;;;3.78;2.20;;;24.00;43.00;;;;;;6192019;28;80794;-64
2023/11/10 02:59:38;;;;;;;4.25;2.33;;;24.00;43.00;;;;;;6201149;28;81678;-61
2023/11/10 03:02:38;;;;;;;4.32;2.58;;;24.00;43.00;;;;;;6150807;28;81576;-61
2023/11/10 03:05:39;;;;;;;2.97;2.10;;;24.00;42.90;;;;;;6162496;28;80389;-61
2023/11/10 03:08:39;;;;;;;3.58;2.20;;;24.00;42.90;;;;;;6191291;28;83879;-62
2023/11/10 03:11:40;;;;;;;2.75;1.73;;;24.00;43.00;;;;;;6189741;28;81172;-61
2023/11/10 03:14:41;;;;;;;2.63;2.10;;;24.10;43.00;;;;;;6176635;28;80830;-62
2023/11/10 03:17:41;;;;;;;2.58;2.35;;;24.00;43.00;;;;;;6176367;28;84154;-62
2023/11/10 03:20:42;;;;;;;4.05;2.55;;;24.00;43.10;;;;;;6150561;28;83809;-63
2023/11/10 03:23:43;;;;;;;2.63;1.75;;;24.00;43.00;;;;;;6139133;28;80107;-63
2023/11/10 03:26:43;;;;;;;3.40;1.88;;;24.10;43.00;;;;;;6157288;28;80642;-62
2023/11/10 03:29:44;;;;;;;5.07;2.10;;;24.10;43.00;;;;;;6174495;28;82297;-64
2023/11/10 03:32:44;;;;;;;2.92;1.88;;;24.10;43.00;;;;;;6173275;28;81134;-65
2023/11/10 03:35:45;;;;;;;5.30;2.05;;;24.10;43.20;;;;;;6173487;28;80561;-65
2023/11/10 03:38:45;;;;;;;3.03;1.98;;;24.00;43.30;;;;;;6175071;28;81178;-65
2023/11/10 03:41:46;;;;;;;2.42;1.77;;;24.00;43.20;;;;;;6173139;28;83164;-63
2023/11/10 03:44:47;;;;;;;2.97;2.22;;;24.00;43.10;;;;;;6175397;28;83364;-63
2023/11/10 03:47:49;;;;;;;3.00;1.70;;;24.00;43.20;;;;;;6173809;28;81129;-63
2023/11/10 03:50:49;;;;;;;3.15;1.80;;;24.00;43.30;;;;;;6156949;28;80480;-65
2023/11/10 03:53:50;;;;;;;2.53;1.85;;;24.00;43.30;;;;;;6159795;28;83085;-63
2023/11/10 03:56:50;;;;;;;2.13;1.65;;;24.00;43.20;;;;;;6180464;28;81130;-63
2023/11/10 03:59:51;;;;;;;2.42;1.70;;;24.00;43.20;;;;;;6174362;28;80746;-62
2023/11/10 04:02:51;;;;;;;2.42;1.67;;;24.00;43.20;;;;;;6172091;28;82186;-63
2023/11/10 04:05:52;;;;;;;3.72;2.03;;;24.00;43.40;;;;;;6172837;28;83722;-63
2023/11/10 04:08:53;;;;;;;2.85;1.85;;;24.10;44.00;;;;;;6177134;28;80900;-65
2023/11/10 04:11:53;;;;;;;1.85;1.50;;;24.10;44.20;;;;;;6176488;28;80681;-67
2023/11/10 04:14:54;;;;;;;1.95;1.60;;;24.10;44.00;;;;;;6175523;28;80567;-59
2023/11/10 04:17:55;;;;;;;6.68;1.70;;;24.10;44.20;;;;;;6175782;28;81391;-61
2023/11/10 04:20:55;;;;;;;2.35;1.48;;;24.10;44.30;;;;;;6176333;28;85202;-64
2023/11/10 04:23:57;;;;;;;2.60;1.40;;;24.10;44.20;;;;;;6179140;28;80714;-74
2023/11/10 04:26:57;;;;;;;3.47;1.67;;;24.10;44.70;;;;;;6179295;28;80359;-63
2023/11/10 04:30:00;;;;;;;2.67;1.40;;;24.10;44.30;;;;;;6178893;28;80799;-60
2023/11/10 04:33:00;;;;;;;1.90;1.50;;;24.10;44.60;;;;;;6179274;28;80977;-65
2023/11/10 04:36:01;;;;;;;2.78;1.50;;;24.20;44.40;;;;;;6179921;28;80512;-63
2023/11/10 04:39:01;;;;;;;3.47;1.38;;;24.20;44.40;;;;;;6176840;28;81990;-62
2023/11/10 04:42:02;;;;;;;6.90;1.42;;;24.10;44.50;;;;;;6176148;28;81118;-59
2023/11/10 04:45:02;;;;;;;1.77;1.30;;;24.20;44.00;;;;;;6175713;28;80363;-60
2023/11/10 04:48:03;;;;;;;2.10;1.55;;;24.20;44.10;;;;;;6176407;28;80438;-63
2023/11/10 04:51:03;;;;;;;3.15;1.50;;;24.30;44.40;;;;;;6173243;28;80982;-64
2023/11/10 04:54:04;;;;;;;2.53;1.73;;;24.20;44.50;;;;;;6177437;28;80970;-64
2023/11/10 04:57:04;;;;;;;4.45;1.40;;;24.30;44.50;;;;;;6178433;28;80434;-65
2023/11/10 05:00:06;;;;;;;1.70;1.48;;;24.30;44.80;;;;;;6173295;28;82703;-64
2023/11/10 05:03:08;;;;;;;2.58;1.40;;;24.30;44.70;;;;;;6175514;28;80938;-69
2023/11/10 05:06:08;;;;;;;3.47;1.40;;;24.30;44.80;;;;;;6172615;28;80119;-62
2023/11/10 05:09:09;;;;;;;2.75;1.30;;;24.40;44.90;;;;;;6173978;28;81597;-61
2023/11/10 05:12:09;;;;;;;2.30;1.15;;;24.30;44.80;;;;;;6174356;28;81116;-61
2023/11/10 05:15:11;;;;;;;2.55;1.40;;;24.40;44.90;;;;;;6175843;28;80369;-56
2023/11/10 05:18:12;;;;;;;4.65;1.30;;;24.40;44.90;;;;;;6177508;28;81436;-64
2023/11/10 05:21:12;;;;;;;6.88;1.38;;;24.30;44.90;;;;;;6177820;28;82694;-65
2023/11/10 05:24:13;;;;;;;4.18;1.45;;;24.30;45.10;;;;;;6178212;28;80365;-62
2023/11/10 05:27:14;;;;;;;5.70;1.80;;;24.40;45.40;;;;;;6178025;28;80200;-59
2023/11/10 05:30:14;;;;;;;2.88;1.65;;;24.40;45.90;;;;;;6176542;28;80469;-60
2023/11/10 05:33:15;;;;;;;3.78;1.50;;;24.40;45.10;;;;;;6176249;28;81041;-59
2023/11/10 05:36:15;;;;;;;4.53;1.20;;;24.30;44.00;;;;;;6175182;28;80739;-58
2023/11/10 05:39:16;;;;;;;3.00;1.58;;;24.10;43.10;;;;;;6175449;28;80564;-58
2023/11/10 05:42:16;;;;;;;2.78;1.40;;;24.00;42.70;;;;;;6173921;28;81267;-58
2023/11/10 05:45:17;;;;;;;4.68;1.73;;;23.90;42.30;;;;;;6174220;28;80570;-66
2023/11/10 05:48:17;;;;;;;3.78;1.58;;;23.90;42.10;;;;;;6174883;28;80535;-65
2023/11/10 05:51:18;;;;;;;3.92;1.60;;;23.80;42.00;;;;;;6174540;28;80673;-66
2023/11/10 05:54:18;;;;;;;3.22;1.70;;;23.80;41.90;;;;;;6173957;28;81037;-65
2023/11/10 05:57:19;;;;;;;7.93;1.67;;;23.70;41.80;;;;;;6175651;28;81556;-65
2023/11/10 06:00:22;;;;;;;3.45;1.60;;;23.70;41.80;;;;;;6154701;28;81070;-65
2023/11/10 06:03:22;;;;;;;2.50;1.27;;;23.60;41.80;;;;;;6157628;28;80932;-58
2023/11/10 06:06:27;;;;;;;5.55;1.55;;;23.60;41.90;;;;;;6172387;28;82101;-56
2023/11/10 06:09:27;;;;;;;2.13;1.67;;;23.60;41.90;;;;;;6175605;28;80442;-59
2023/11/10 06:12:28;;;;;;;7.93;2.03;;;23.50;42.00;;;;;;6176577;28;80392;-58
2023/11/10 06:15:28;;;;;;;3.83;1.80;;;23.50;42.00;;;;;;6176885;28;83932;-58
2023/11/10 06:18:30;;;;;;;7.32;2.20;;;23.50;42.00;;;;;;6177342;28;81191;-58
2023/11/10 06:21:31;;;;;;;7.95;1.95;;;23.40;41.90;;;;;;6177349;28;80344;-58
2023/11/10 06:24:31;;;;;;;9.00;2.28;;;23.40;42.00;;;;;;6168779;28;81320;-58
2023/11/10 06:27:33;;;;;;;5.72;2.22;;;23.40;42.10;;;;;;6176450;28;80505;-58
2023/11/10 06:30:34;;;;;;;7.20;2.38;;;23.40;42.20;;;;;;6176191;28;80373;-58
2023/11/10 06:33:34;;;;;;;4.70;2.17;;;23.30;42.10;;;;;;6176681;28;80287;-60
2023/11/10 06:36:35;;;;;;;9.35;2.33;;;23.30;42.20;;;;;;6176511;28;80454;-58
2023/11/10 06:39:35;;;;;;;10.57;2.50;;;23.30;42.10;;;;;;6178277;28;80481;-58
2023/11/10 06:42:37;;;;;;;9.63;2.70;;;23.20;42.10;;;;;;6176282;28;81948;-58
2023/11/10 06:45:38;;;;;;;10.77;2.60;;;23.20;42.20;;;;;;6177160;28;80379;-58
2023/11/10 06:48:38;;;;;;;4.75;2.85;;;23.20;42.10;;;;;;6176584;28;80688;-57
2023/11/10 06:51:40;;;;;;;10.25;3.17;;;23.20;42.10;;;;;;6176844;28;80853;-58
2023/11/10 06:54:41;;;;;;;9.52;3.05;;;23.20;42.10;;;;;;6187674;28;84652;-59
2023/11/10 06:57:41;;;;;;;8.95;2.80;;;23.20;42.10;;;;;;6197606;28;81850;-65
2023/11/10 07:00:45;;;;;;;9.60;3.40;;;23.10;42.00;;;;;;6176498;28;80405;-65
2023/11/10 07:03:45;;;;;;;5.55;2.47;;;23.10;42.00;;;;;;6195207;28;80673;-66
2023/11/10 07:06:46;;;;;;;5.43;2.92;;;23.10;42.10;;;;;;6177554;28;80823;-65
2023/11/10 07:09:46;;;;;;;8.70;3.22;;;23.10;42.00;;;;;;6177134;28;82466;-65
2023/11/10 07:12:47;;;;;;;6.50;3.40;;;23.10;42.00;;;;;;6176463;28;80606;-65
2023/11/10 07:15:48;;;;;;;6.28;2.85;;;23.10;42.10;;;;;;6176215;28;83252;-55
2023/11/10 07:18:49;;;;;;;6.78;2.90;;;23.10;42.00;;;;;;6175487;28;81468;-57
2023/11/10 07:21:49;;;;;;;7.82;2.92;;;23.10;42.00;;;;;;6175295;28;80535;-54
2023/11/10 07:24:49;;;;;;;6.43;2.70;;;23.10;42.00;;;;;;6176284;28;81823;-56
2023/11/10 07:27:50;;;;;;;5.65;2.95;;;23.10;42.10;;;;;;6175890;28;81410;-58
2023/11/10 07:30:51;;;;;;;9.75;3.33;;;23.10;42.20;;;;;;6174825;28;80935;-57
2023/11/10 07:33:51;;;;;;;8.10;3.83;;;23.10;42.20;;;;;;6173235;28;81526;-65
2023/11/10 07:36:53;;;;;;;8.05;3.90;;;23.10;42.20;;;;;;6176659;28;80426;-65
2023/11/10 07:39:54;;;;;;;6.68;3.25;;;23.10;42.10;;;;;;6176639;28;80583;-65
2023/11/10 07:42:54;;;;;;;7.15;3.70;;;23.10;42.10;;;;;;6175550;28;80972;-64
2023/11/10 07:45:55;;;;;;;8.10;3.53;;;23.10;42.00;;;;;;6175625;28;80754;-65
2023/11/10 07:48:55;;;;;;;7.75;3.25;;;23.10;42.10;;;;;;6176976;28;80772;-65
2023/11/10 07:51:56;;;;;;;6.70;3.28;;;23.00;42.10;;;;;;6175212;28;81500;-52
2023/11/10 07:54:57;;;;;;;9.68;3.85;;;23.10;42.40;;;;;;6177623;28;81778;-56
2023/11/10 07:57:57;;;;;;;8.02;3.20;;;23.00;42.50;;;;;;6179785;28;80436;-56
2023/11/10 08:00:57;;;;;;;8.60;3.80;;;23.10;42.50;;;;;;6179406;28;83167;-55
2023/11/10 08:03:58;;;;;;;12.27;3.88;;;23.10;42.70;;;;;;6179630;28;80472;-56
2023/11/10 08:06:59;;;;;;;8.68;3.65;;;23.10;42.80;;;;;;6180492;28;80324;-55
2023/11/10 08:09:59;;;;;;;7.97;4.20;;;23.10;42.90;;;;;;6180839;28;81709;-57
2023/11/10 08:13:00;;;;;;;10.50;3.85;;;23.00;42.80;;;;;;6179985;28;80326;-57
2023/11/10 08:16:00;;;;;;;11.23;3.85;;;23.00;42.80;;;;;;6178986;28;80370;-58
2023/11/10 08:19:02;;;;;;;10.02;3.95;;;23.10;42.80;;;;;;6179948;28;81605;-58
2023/11/10 08:22:03;;;;;;;12.38;3.72;;;23.10;42.90;;;;;;6179331;28;81971;-58
2023/11/10 08:25:05;;;;;;;6.53;3.60;;;23.10;42.90;;;;;;6179623;28;80622;-56
2023/11/10 08:28:08;;;;;;;7.53;3.63;;;23.10;43.00;;;;;;6180688;28;80512;-58
2023/11/10 08:31:08;;;;;;;10.32;4.55;;;23.10;43.00;;;;;;6172386;28;81796;-56
2023/11/10 08:34:09;;;;;;;11.68;4.45;;;23.10;42.90;;;;;;6177892;28;80221;-56
2023/11/10 08:37:09;;;;;;;9.60;4.43;;;23.10;43.00;;;;;;6179960;28;80595;-57
2023/11/10 08:40:10;;;;;;;11.77;4.82;;;23.00;43.00;;;;;;6179432;28;80525;-56
2023/11/10 08:43:10;;;;;;;10.98;4.25;;;23.00;43.00;;;;;;6178621;28;87593;-54
2023/11/10 08:46:11;;;;;;;9.50;4.32;;;23.00;43.00;;;;;;6178856;28;80292;-56
2023/11/10 08:49:12;;;;;;;7.95;4.00;;;23.00;43.00;;;;;;6179533;28;81291;-59
2023/11/10 08:52:14;;;;;;;12.95;3.85;;;23.00;43.10;;;;;;6178904;28;80931;-59
2023/11/10 08:55:20;;;;;;;8.05;4.22;;;23.10;43.10;;;;;;6176939;28;80496;-60
2023/11/10 08:58:21;;;;;;;9.23;4.18;;;23.00;43.20;;;;;;6178572;28;80241;-61
2023/11/10 09:01:22;;;;;;;9.40;4.30;;;23.00;43.20;;;;;;6178891;28;80411;-60
2023/11/10 09:04:22;;;;;;;9.93;4.05;;;23.00;43.30;;;;;;6178521;28;81568;-61
2023/11/10 09:07:23;;;;;;;8.65;4.20;;;23.10;43.40;;;;;;6177906;28;81612;-60
2023/11/10 09:10:23;;;;;;;10.55;5.00;;;23.10;43.50;;;;;;6178313;28;80283;-61
2023/11/10 09:13:24;;;;;;;9.65;4.45;;;23.10;43.50;;;;;;6179703;28;80350;-60
2023/11/10 09:16:25;;;;;;;10.75;4.25;;;23.10;43.60;;;;;;6177717;28;80490;-60
2023/11/10 09:19:25;;;;;;;14.73;5.50;;;23.20;43.50;;;;;;6179778;28;80839;-61
2023/11/10 09:22:26;;;;;;;14.68;5.50;;;23.30;43.40;;;;;;6178369;28;82278;-60
2023/11/10 09:25:27;;;;;;;18.55;6.03;;;23.30;43.40;;;;;;6179171;28;80835;-67
2023/11/10 09:28:30;;;;;;;12.45;5.13;;;23.40;43.50;;;;;;6177705;28;80947;-70
2023/11/10 09:31:31;;;;;;;13.02;4.93;;;23.40;43.40;;;;;;6177058;28;83619;-68
2023/11/10 09:34:31;;;;;;;11.27;4.53;;;23.50;43.40;;;;;;6178274;28;80429;-68
2023/11/10 09:37:32;;;;;;;13.20;4.80;;;23.50;43.30;;;;;;6178929;28;81086;-68
2023/11/10 09:40:34;;;;;;;11.80;4.57;;;23.50;43.30;;;;;;6178641;28;81869;-69
2023/11/10 09:43:35;;;;;;;13.25;4.45;;;23.60;43.30;;;;;;6178051;28;80322;-57
2023/11/10 09:46:35;;;;;;;9.48;4.20;;;23.70;43.40;;;;;;6177892;28;81747;-57
2023/11/10 09:49:36;;;;;;;13.32;4.82;;;23.80;43.30;;;;;;6178223;28;80410;-57
2023/11/10 09:52:36;;;;;;;13.30;5.25;;;23.80;43.20;;;;;;6177663;28;80509;-59
2023/11/10 09:55:37;;;;;;;8.85;4.18;;;23.80;43.20;;;;;;6178800;28;81429;-59
2023/11/10 09:58:37;;;;;;;11.65;5.10;;;23.80;43.20;;;;;;6177753;28;80528;-57
2023/11/10 10:01:38;;;;;;;13.63;4.47;;;23.80;43.20;;;;;;6177777;28;82534;-61
2023/11/10 10:04:39;;;;;;;11.00;4.72;;;23.70;43.20;;;;;;6177670;28;80106;-61
2023/11/10 10:07:40;;;;;;;18.13;5.47;;;23.70;43.20;;;;;;6178074;28;82658;-61
2023/11/10 10:10:40;;;;;;;17.48;5.32;;;23.70;43.30;;;;;;6177681;28;80395;-62
2023/11/10 10:13:41;;;;;;;16.95;4.68;;;23.70;43.30;;;;;;6177611;28;81251;-61
2023/11/10 10:16:41;;;;;;;21.60;5.68;;;23.60;43.30;;;;;;6178744;28;81216;-61
2023/11/10 10:19:42;;;;;;;19.83;5.85;;;23.60;43.30;;;;;;6164591;28;80743;-62
2023/11/10 10:22:43;;;;;;;14.20;5.32;;;23.60;43.40;;;;;;6177580;28;80928;-61
2023/11/10 10:25:43;;;;;;;18.73;4.88;;;23.50;43.50;;;;;;6176906;28;80717;-61
2023/11/10 10:28:44;;;;;;;15.13;5.20;;;23.50;43.60;;;;;;6176889;28;80289;-61
2023/11/10 10:31:45;;;;;;;14.05;4.93;;;23.60;43.60;;;;;;6175798;28;81369;-61
2023/11/10 10:34:46;;;;;;;12.82;4.97;;;23.70;43.50;;;;;;6176682;28;80818;-61
2023/11/10 10:37:49;;;;;;;11.68;5.05;;;23.70;43.40;;;;;;6177226;28;81077;-61
2023/11/10 10:40:52;;;;;;;13.38;4.28;;;23.70;43.40;;;;;;6177898;28;80347;-60
2023/11/10 10:43:53;;;;;;;14.07;4.30;;;23.70;43.40;;;;;;6177126;28;81182;-60
2023/11/10 10:46:54;;;;;;;16.55;3.85;;;23.60;43.30;;;;;;6177739;28;80539;-60
2023/11/10 10:49:54;;;;;;;15.27;4.90;;;23.60;43.20;;;;;;6178034;28;80833;-60
2023/11/10 10:52:55;;;;;;;15.93;4.60;;;23.60;43.40;;;;;;6176876;28;81116;-60
2023/11/10 10:55:58;;;;;;;11.82;5.10;;;23.50;43.40;;;;;;6177197;28;80569;-60
2023/11/10 10:58:59;;;;;;;12.82;4.45;;;23.50;43.50;;;;;;6178009;28;80386;-61
2023/11/10 11:02:02;;;;;;;8.05;4.07;;;23.50;43.50;;;;;;6176719;28;80523;-61
2023/11/10 11:05:03;;;;;;;10.45;4.20;;;23.50;43.50;;;;;;6176206;28;80747;-61
2023/11/10 11:08:03;;;;;;;12.65;4.97;;;23.50;43.40;;;;;;6174965;28;81719;-59
2023/11/10 11:11:04;;;;;;;12.88;4.22;;;23.40;43.30;;;;;;6176578;28;80961;-60
2023/11/10 11:14:05;;;;;;;15.02;3.88;;;23.40;43.30;;;;;;6175893;28;80458;-60
2023/11/10 11:17:07;;;;;;;11.55;4.88;;;23.40;43.20;;;;;;6176490;28;80480;-60
2023/11/10 11:20:09;;;;;;;9.38;3.20;;;23.40;43.10;;;;;;6177342;28;81759;-60
2023/11/10 11:23:10;;;;;;;10.02;3.35;;;23.30;42.80;;;;;;6176312;28;80296;-60
2023/11/10 11:26:10;;;;;;;6.50;3.33;;;23.30;42.60;;;;;;6176887;28;80497;-60
2023/11/10 11:29:11;;;;;;;8.30;2.88;;;23.30;42.40;;;;;;6175017;28;80412;-60
2023/11/10 11:32:13;;;;;;;10.32;2.72;;;23.30;42.30;;;;;;6175021;28;81665;-64
2023/11/10 11:35:17;;;;;;;9.20;3.08;;;23.20;42.20;;;;;;6176199;28;80390;-61
2023/11/10 11:38:17;;;;;;;7.15;3.17;;;23.20;42.20;;;;;;6176385;28;81719;-61
2023/11/10 11:41:18;;;;;;;6.38;2.63;;;23.20;42.30;;;;;;6175857;28;81322;-60
2023/11/10 11:44:18;;;;;;;9.07;3.05;;;23.20;42.30;;;;;;6175770;28;80645;-61
2023/11/10 11:47:19;;;;;;;8.40;3.05;;;23.20;42.30;;;;;;6176118;28;81029;-62
2023/11/10 11:50:22;;;;;;;7.80;2.65;;;23.20;42.30;;;;;;6176255;28;81230;-67
2023/11/10 11:53:22;;;;;;;6.10;2.78;;;23.20;42.30;;;;;;6175642;28;80713;-64
2023/11/10 11:56:23;;;;;;;5.35;2.60;;;23.10;42.30;;;;;;6175511;28;81064;-64
2023/11/10 11:59:23;;;;;;;4.45;2.20;;;23.10;42.30;;;;;;6175420;28;80402;-65
2023/11/10 12:02:24;;;;;;;4.25;2.70;;;23.10;42.30;;;;;;6175577;28;81366;-64
2023/11/10 12:05:25;;;;;;;6.10;2.30;;;23.10;42.30;;;;;;6175451;28;80357;-64
2023/11/10 12:08:26;;;;;;;3.50;2.08;;;23.10;42.30;;;;;;6175628;28;80807;-64
2023/11/10 12:11:26;;;;;;;4.90;2.33;;;23.10;42.40;;;;;;6175845;28;80677;-56
2023/11/10 12:14:27;;;;;;;2.72;1.70;;;23.10;42.30;;;;;;6175540;28;80273;-56
2023/11/10 12:17:27;;;;;;;4.68;2.00;;;23.10;42.30;;;;;;6175238;28;81070;-56
2023/11/10 12:20:28;;;;;;;4.07;2.50;;;23.10;42.30;;;;;;6175294;28;81599;-58
2023/11/10 12:23:28;;;;;;;5.88;2.28;;;23.10;42.40;;;;;;6172837;28;80697;-57
2023/11/10 12:26:29;;;;;;;6.60;2.78;;;23.10;42.40;;;;;;6175815;28;81057;-58
2023/11/10 12:29:30;;;;;;;6.22;2.63;;;23.10;42.30;;;;;;6174645;28;81389;-63
2023/11/10 12:32:31;;;;;;;6.53;2.33;;;23.00;42.40;;;;;;6174830;28;80508;-64
2023/11/10 12:35:32;;;;;;;6.85;2.55;;;23.00;42.40;;;;;;6174422;28;80348;-63
2023/11/10 12:38:33;;;;;;;4.45;2.38;;;23.00;42.40;;;;;;6175164;28;80778;-64
2023/11/10 12:41:34;;;;;;;4.65;2.60;;;23.10;42.50;;;;;;6175775;28;80629;-64
2023/11/10 12:44:35;;;;;;;6.65;3.47;;;23.10;42.50;;;;;;6178952;28;80454;-64
2023/11/10 12:47:42;;;;;;;5.93;3.58;;;23.10;42.50;;;;;;6179095;28;82243;-64
2023/11/10 12:50:42;;;;;;;6.78;3.30;;;23.00;42.40;;;;;;6179633;28;81333;-64
2023/11/10 12:53:43;;;;;;;5.63;2.95;;;23.10;42.40;;;;;;6180054;28;80992;-63
2023/11/10 12:56:43;;;;;;;9.10;3.45;;;23.00;42.40;;;;;;6179071;28;80877;-64
2023/11/10 12:59:44;;;;;;;7.72;3.05;;;23.00;42.40;;;;;;6166980;28;82077;-69
2023/11/10 13:02:44;;;;;;;13.85;3.88;;;23.00;42.50;;;;;;6149982;28;83318;-68
2023/11/10 13:05:48;;;;;;;16.40;4.75;;;23.00;42.90;;;;;;6177929;28;80772;-59
2023/11/10 13:08:49;;;;;;;10.55;4.10;;;23.00;42.80;;;;;;6161125;28;84041;-60
2023/11/10 13:11:49;;;;;;;8.90;3.90;;;23.00;43.40;;;;;;6177472;28;80921;-59
2023/11/10 13:14:51;;;;;;;11.43;3.80;;;23.00;43.50;;;;;;6176935;28;80458;-60
2023/11/10 13:17:51;;;;;;;11.35;4.43;;;23.10;43.80;;;;;;6177559;28;80578;-59
2023/11/10 13:20:52;;;;;;;11.65;4.22;;;23.10;43.70;;;;;;6174348;28;81079;-60
2023/11/10 13:23:56;;;;;;;9.00;3.80;;;23.10;43.70;;;;;;6170995;28;85959;-62
2023/11/10 13:26:56;;;;;;;7.93;3.72;;;23.10;43.40;;;;;;6161958;28;83729;-60
2023/11/10 13:30:00;;;;;;;8.13;3.58;;;23.20;44.10;;;;;;6173105;28;80567;-60
2023/11/10 13:33:01;;;;;;;8.75;3.92;;;23.10;43.70;;;;;;6174128;28;80386;-58
2023/11/10 13:36:05;;;;;;;6.68;4.03;;;23.20;44.00;;;;;;6173294;28;82607;-58
2023/11/10 13:39:06;;;;;;;10.23;4.25;;;23.20;44.30;;;;;;6177187;28;80561;-58
2023/11/10 13:42:07;;;;;;;19.27;5.13;;;23.20;44.30;;;;;;6177060;28;80500;-60
2023/11/10 13:45:10;;;;;;;9.55;4.93;;;23.20;44.50;;;;;;6165843;28;80861;-60
2023/11/10 13:48:11;;;;;;;9.73;4.72;;;23.20;44.40;;;;;;6173022;28;81031;-59
2023/11/10 13:51:11;;;;;;;8.30;4.75;;;23.20;44.20;;;;;;6178139;28;80864;-59
2023/11/10 13:54:12;;;;;;;11.27;5.05;;;23.20;44.70;;;;;;6173697;28;81188;-61
2023/11/10 13:57:12;;;;;;;12.05;5.28;;;23.20;44.60;;;;;;6158405;28;81243;-60
2023/11/10 14:00:13;;;;;;;7.97;5.18;;;23.20;44.50;;;;;;6171646;28;81006;-61
2023/11/10 14:03:13;;;;;;;9.27;5.05;;;23.20;44.50;;;;;;6166239;28;80353;-60
2023/11/10 14:06:15;;;;;;;11.60;5.13;;;23.20;44.40;;;;;;6167102;28;80886;-58
2023/11/10 14:09:16;;;;;;;11.45;5.95;;;23.20;44.40;;;;;;6165363;28;81120;-59
2023/11/10 14:12:16;;;;;;;14.70;5.65;;;23.20;44.40;;;;;;6165736;28;80879;-59
2023/11/10 14:15:17;;;;;;;8.80;5.10;;;23.20;44.60;;;;;;6165715;28;81331;-60
2023/11/10 14:18:18;;;;;;;8.68;5.05;;;23.20;44.70;;;;;;6174406;28;81771;-60
2023/11/10 14:21:21;;;;;;;10.00;4.93;;;23.20;44.80;;;;;;6174951;28;80615;-60
2023/11/10 14:24:22;;;;;;;9.15;5.95;;;23.10;44.70;;;;;;6166703;28;80915;-60
2023/11/10 14:27:25;;;;;;;12.30;5.65;;;23.10;44.90;;;;;;6170139;28;82519;-65
2023/11/10 14:30:26;;;;;;;10.80;5.60;;;23.10;44.80;;;;;;6172570;28;80908;-63
2023/11/10 14:33:29;;;;;;;10.10;5.72;;;23.10;44.90;;;;;;6174787;28;81065;-61
2023/11/10 14:36:29;;;;;;;9.48;4.78;;;23.10;45.00;;;;;;6166902;28;83036;-60
2023/11/10 14:39:31;;;;;;;12.77;5.43;;;23.10;45.10;;;;;;6162161;28;81174;-59
2023/11/10 14:42:31;;;;;;;10.60;5.97;;;23.10;45.30;;;;;;6170968;28;80395;-58
2023/11/10 14:45:32;;;;;;;9.35;5.20;;;23.10;45.10;;;;;;6178259;28;81107;-58
2023/11/10 14:48:35;;;;;;;10.20;5.07;;;23.10;45.20;;;;;;6179422;28;80750;-59
2023/11/10 14:51:42;;;;;;;15.30;6.45;;;23.10;45.60;;;;;;6178327;28;80683;-60
2023/11/10 14:54:42;;;;;;;9.13;5.65;;;23.10;45.60;;;;;;6144223;28;85351;-67
2023/11/10 14:57:43;;;;;;;9.00;5.20;;;23.10;45.70;;;;;;6146708;28;83949;-70
2023/11/10 15:00:43;;;;;;;13.20;5.60;;;23.20;45.80;;;;;;6147875;28;80475;-68
2023/11/10 15:03:45;;;;;;;12.85;6.28;;;23.20;45.90;;;;;;6176358;28;80811;-66
2023/11/10 15:06:45;;;;;;;12.60;6.20;;;23.30;46.30;;;;;;6182403;28;80445;-67
2023/11/10 15:09:46;;;;;;;14.35;6.80;;;23.30;46.70;;;;;;6172131;28;80285;-67
2023/11/10 15:12:46;;;;;;;10.48;5.88;;;23.30;46.20;;;;;;6177628;28;80126;-67
2023/11/10 15:15:47;;;;;;;12.85;5.72;;;23.30;46.00;;;;;;6186675;28;80641;-66
2023/11/10 15:18:47;;;;;;;11.63;6.35;;;23.30;46.10;;;;;;6177163;28;81534;-66
2023/11/10 15:21:48;;;;;;;10.02;6.07;;;23.40;46.50;;;;;;6163532;28;80502;-65
2023/11/10 15:24:48;;;;;;;11.43;6.68;;;23.40;46.50;;;;;;6153921;28;80180;-68
2023/11/10 15:27:50;;;;;;;11.10;5.93;;;23.40;46.60;;;;;;6166286;28;81838;-69
2023/11/10 15:30:50;;;;;;;9.05;6.13;;;23.40;46.50;;;;;;6167942;28;81777;-65
2023/11/10 15:33:51;;;;;;;10.73;5.93;;;23.50;46.30;;;;;;6175215;28;80456;-63
2023/11/10 15:36:58;;;;;;;10.25;6.03;;;23.50;46.60;;;;;;6172204;28;80173;-63